sensor_id;sensor_type;location;lat;lon;timestamp;P1;durP1;ratioP1;P2;durP2;ratioP2
583;SDS011;27024;54.068;12.116;2022-11-15T00:00:54;91.32;;;30.80;;
583;SDS011;27024;54.068;12.116;2022-11-15T00:03:22;84.00;;;29.05;;
583;SDS011;27024;54.068;12.116;2022-11-15T00:05:51;91.97;;;31.02;;
583;SDS011;27024;54.068;12.116;2022-11-15T00:08:18;92.03;;;30.23;;
583;SDS011;27024;54.068;12.116;2022-11-15T00:10:55;91.38;;;30.88;;
583;SDS011;27024;54.068;12.116;2022-11-15T00:13:22;88.30;;;32.03;;
583;SDS011;27024;54.068;12.116;2022-11-15T00:15:49;90.53;;;31.20;;
583;SDS011;27024;54.068;12.116;2022-11-15T00:18:16;83.15;;;30.02;;
583;SDS011;27024;54.068;12.116;2022-11-15T00:20:44;84.28;;;29.73;;
583;SDS011;27024;54.068;12.116;2022-11-15T00:23:10;91.80;;;29.63;;
583;SDS011;27024;54.068;12.116;2022-11-15T00:25:38;88.32;;;28.00;;
583;SDS011;27024;54.068;12.116;2022-11-15T00:28:04;89.43;;;31.10;;
583;SDS011;27024;54.068;12.116;2022-11-15T00:30:31;83.43;;;30.08;;
583;SDS011;27024;54.068;12.116;2022-11-15T00:33:02;87.13;;;30.10;;
583;SDS011;27024;54.068;12.116;2022-11-15T00:35:32;90.18;;;32.15;;
583;SDS011;27024;54.068;12.116;2022-11-15T00:38:00;86.88;;;30.45;;
583;SDS011;27024;54.068;12.116;2022-11-15T00:40:28;80.80;;;29.65;;
583;SDS011;27024;54.068;12.116;2022-11-15T00:42:55;86.03;;;31.35;;
583;SDS011;27024;54.068;12.116;2022-11-15T00:45:22;88.07;;;30.23;;
583;SDS011;27024;54.068;12.116;2022-11-15T00:47:49;88.72;;;30.52;;
583;SDS011;27024;54.068;12.116;2022-11-15T00:50:16;86.45;;;30.02;;
583;SDS011;27024;54.068;12.116;2022-11-15T00:52:43;85.50;;;31.23;;
583;SDS011;27024;54.068;12.116;2022-11-15T00:55:13;83.43;;;30.48;;
583;SDS011;27024;54.068;12.116;2022-11-15T00:57:41;83.30;;;28.90;;
583;SDS011;27024;54.068;12.116;2022-11-15T01:00:08;86.57;;;30.27;;
583;SDS011;27024;54.068;12.116;2022-11-15T01:02:35;82.07;;;30.00;;
583;SDS011;27024;54.068;12.116;2022-11-15T01:05:02;81.60;;;28.23;;
583;SDS011;27024;54.068;12.116;2022-11-15T01:07:30;80.82;;;28.08;;
583;SDS011;27024;54.068;12.116;2022-11-15T01:09:57;84.75;;;30.08;;
583;SDS011;27024;54.068;12.116;2022-11-15T01:12:23;83.63;;;29.83;;
583;SDS011;27024;54.068;12.116;2022-11-15T01:14:50;83.82;;;30.27;;
583;SDS011;27024;54.068;12.116;2022-11-15T01:17:17;77.90;;;29.63;;
583;SDS011;27024;54.068;12.116;2022-11-15T01:19:44;77.97;;;29.10;;
583;SDS011;27024;54.068;12.116;2022-11-15T01:22:11;84.18;;;29.55;;
583;SDS011;27024;54.068;12.116;2022-11-15T01:24:38;89.53;;;30.40;;
583;SDS011;27024;54.068;12.116;2022-11-15T01:27:04;81.22;;;30.13;;
583;SDS011;27024;54.068;12.116;2022-11-15T01:29:32;86.93;;;30.10;;
583;SDS011;27024;54.068;12.116;2022-11-15T01:31:59;82.03;;;29.60;;
583;SDS011;27024;54.068;12.116;2022-11-15T01:34:26;89.15;;;31.83;;
583;SDS011;27024;54.068;12.116;2022-11-15T01:36:53;92.88;;;30.48;;
583;SDS011;27024;54.068;12.116;2022-11-15T01:39:20;85.28;;;31.30;;
583;SDS011;27024;54.068;12.116;2022-11-15T01:41:46;87.07;;;29.42;;
583;SDS011;27024;54.068;12.116;2022-11-15T01:47:16;86.80;;;31.45;;
583;SDS011;27024;54.068;12.116;2022-11-15T01:50:09;79.45;;;29.58;;
583;SDS011;27024;54.068;12.116;2022-11-15T01:52:38;87.13;;;31.40;;
583;SDS011;27024;54.068;12.116;2022-11-15T01:55:11;91.40;;;32.05;;
583;SDS011;27024;54.068;12.116;2022-11-15T01:57:46;93.60;;;31.75;;
583;SDS011;27024;54.068;12.116;2022-11-15T02:00:16;95.88;;;32.03;;
583;SDS011;27024;54.068;12.116;2022-11-15T02:02:43;95.57;;;31.50;;
583;SDS011;27024;54.068;12.116;2022-11-15T02:05:10;92.13;;;30.80;;
583;SDS011;27024;54.068;12.116;2022-11-15T02:07:37;99.18;;;32.95;;
583;SDS011;27024;54.068;12.116;2022-11-15T02:10:09;94.55;;;32.90;;
583;SDS011;27024;54.068;12.116;2022-11-15T02:12:43;86.15;;;29.95;;
583;SDS011;27024;54.068;12.116;2022-11-15T02:15:10;81.20;;;29.27;;
583;SDS011;27024;54.068;12.116;2022-11-15T02:18:25;92.05;;;31.13;;
583;SDS011;27024;54.068;12.116;2022-11-15T02:20:36;86.15;;;30.17;;
583;SDS011;27024;54.068;12.116;2022-11-15T02:23:14;75.70;;;28.83;;
583;SDS011;27024;54.068;12.116;2022-11-15T02:28:23;83.28;;;30.40;;
583;SDS011;27024;54.068;12.116;2022-11-15T02:31:00;76.47;;;26.95;;
583;SDS011;27024;54.068;12.116;2022-11-15T02:33:45;75.35;;;27.33;;
583;SDS011;27024;54.068;12.116;2022-11-15T02:36:40;79.43;;;28.17;;
583;SDS011;27024;54.068;12.116;2022-11-15T02:39:27;76.78;;;29.50;;
583;SDS011;27024;54.068;12.116;2022-11-15T02:45:09;86.65;;;29.98;;
583;SDS011;27024;54.068;12.116;2022-11-15T02:47:44;77.18;;;27.85;;
583;SDS011;27024;54.068;12.116;2022-11-15T02:50:16;78.45;;;28.30;;
583;SDS011;27024;54.068;12.116;2022-11-15T02:52:45;80.85;;;29.13;;
583;SDS011;27024;54.068;12.116;2022-11-15T02:55:29;84.05;;;28.50;;
583;SDS011;27024;54.068;12.116;2022-11-15T03:01:08;71.82;;;27.05;;
583;SDS011;27024;54.068;12.116;2022-11-15T03:06:44;76.60;;;28.85;;
583;SDS011;27024;54.068;12.116;2022-11-15T03:09:25;81.85;;;28.90;;
583;SDS011;27024;54.068;12.116;2022-11-15T03:12:04;73.22;;;27.73;;
583;SDS011;27024;54.068;12.116;2022-11-15T03:14:48;80.22;;;27.83;;
583;SDS011;27024;54.068;12.116;2022-11-15T03:17:25;71.10;;;26.45;;
583;SDS011;27024;54.068;12.116;2022-11-15T03:19:57;74.68;;;27.05;;
583;SDS011;27024;54.068;12.116;2022-11-15T03:22:27;77.50;;;27.75;;
583;SDS011;27024;54.068;12.116;2022-11-15T03:25:02;74.15;;;27.83;;
583;SDS011;27024;54.068;12.116;2022-11-15T03:27:33;78.85;;;28.45;;
583;SDS011;27024;54.068;12.116;2022-11-15T03:30:05;80.00;;;29.05;;
583;SDS011;27024;54.068;12.116;2022-11-15T03:32:35;87.85;;;28.25;;
583;SDS011;27024;54.068;12.116;2022-11-15T03:35:08;82.32;;;28.80;;
583;SDS011;27024;54.068;12.116;2022-11-15T03:40:41;77.90;;;28.25;;
583;SDS011;27024;54.068;12.116;2022-11-15T03:45:41;78.07;;;26.88;;
583;SDS011;27024;54.068;12.116;2022-11-15T03:48:18;78.90;;;29.23;;
583;SDS011;27024;54.068;12.116;2022-11-15T03:50:50;73.32;;;26.27;;
583;SDS011;27024;54.068;12.116;2022-11-15T03:53:18;76.38;;;28.33;;
583;SDS011;27024;54.068;12.116;2022-11-15T03:55:44;80.05;;;28.58;;
583;SDS011;27024;54.068;12.116;2022-11-15T03:58:11;81.15;;;28.05;;
583;SDS011;27024;54.068;12.116;2022-11-15T04:00:38;78.30;;;27.83;;
583;SDS011;27024;54.068;12.116;2022-11-15T04:03:04;74.57;;;26.33;;
583;SDS011;27024;54.068;12.116;2022-11-15T04:05:31;79.90;;;28.52;;
583;SDS011;27024;54.068;12.116;2022-11-15T04:07:58;80.38;;;28.25;;
583;SDS011;27024;54.068;12.116;2022-11-15T04:10:25;82.03;;;27.80;;
583;SDS011;27024;54.068;12.116;2022-11-15T04:12:52;78.13;;;28.48;;
583;SDS011;27024;54.068;12.116;2022-11-15T04:15:20;77.40;;;27.67;;
583;SDS011;27024;54.068;12.116;2022-11-15T04:17:49;74.28;;;26.67;;
583;SDS011;27024;54.068;12.116;2022-11-15T04:20:18;81.00;;;26.23;;
583;SDS011;27024;54.068;12.116;2022-11-15T04:23:05;72.85;;;24.42;;
583;SDS011;27024;54.068;12.116;2022-11-15T04:25:56;76.57;;;27.38;;
583;SDS011;27024;54.068;12.116;2022-11-15T04:28:26;75.45;;;26.42;;
583;SDS011;27024;54.068;12.116;2022-11-15T04:30:53;78.38;;;27.38;;
583;SDS011;27024;54.068;12.116;2022-11-15T04:33:20;77.13;;;27.23;;
583;SDS011;27024;54.068;12.116;2022-11-15T04:35:47;72.72;;;25.88;;
583;SDS011;27024;54.068;12.116;2022-11-15T04:38:34;77.88;;;25.63;;
583;SDS011;27024;54.068;12.116;2022-11-15T04:41:02;77.32;;;27.15;;
583;SDS011;27024;54.068;12.116;2022-11-15T04:43:29;75.82;;;27.00;;
583;SDS011;27024;54.068;12.116;2022-11-15T04:45:56;70.40;;;26.85;;
583;SDS011;27024;54.068;12.116;2022-11-15T04:48:23;73.18;;;27.27;;
583;SDS011;27024;54.068;12.116;2022-11-15T04:50:50;76.53;;;28.25;;
583;SDS011;27024;54.068;12.116;2022-11-15T04:53:16;76.60;;;27.15;;
583;SDS011;27024;54.068;12.116;2022-11-15T04:55:46;73.88;;;26.38;;
583;SDS011;27024;54.068;12.116;2022-11-15T04:58:13;81.60;;;29.27;;
583;SDS011;27024;54.068;12.116;2022-11-15T05:00:39;82.43;;;28.60;;
583;SDS011;27024;54.068;12.116;2022-11-15T05:03:08;76.15;;;27.33;;
583;SDS011;27024;54.068;12.116;2022-11-15T05:05:54;79.85;;;28.38;;
583;SDS011;27024;54.068;12.116;2022-11-15T05:08:21;83.22;;;28.58;;
583;SDS011;27024;54.068;12.116;2022-11-15T05:10:48;80.78;;;27.38;;
583;SDS011;27024;54.068;12.116;2022-11-15T05:13:14;84.90;;;29.23;;
583;SDS011;27024;54.068;12.116;2022-11-15T05:15:41;85.82;;;27.75;;
583;SDS011;27024;54.068;12.116;2022-11-15T05:18:08;89.28;;;28.65;;
583;SDS011;27024;54.068;12.116;2022-11-15T05:20:34;86.28;;;28.02;;
583;SDS011;27024;54.068;12.116;2022-11-15T05:23:01;92.30;;;29.70;;
583;SDS011;27024;54.068;12.116;2022-11-15T05:25:28;78.55;;;28.55;;
583;SDS011;27024;54.068;12.116;2022-11-15T05:27:55;80.93;;;27.65;;
583;SDS011;27024;54.068;12.116;2022-11-15T05:30:22;85.05;;;28.77;;
583;SDS011;27024;54.068;12.116;2022-11-15T05:32:48;87.28;;;28.88;;
583;SDS011;27024;54.068;12.116;2022-11-15T05:35:21;116.82;;;27.85;;
583;SDS011;27024;54.068;12.116;2022-11-15T05:37:57;101.88;;;28.75;;
583;SDS011;27024;54.068;12.116;2022-11-15T05:40:24;130.40;;;29.30;;
583;SDS011;27024;54.068;12.116;2022-11-15T05:42:52;132.13;;;28.48;;
583;SDS011;27024;54.068;12.116;2022-11-15T05:45:18;127.45;;;30.65;;
583;SDS011;27024;54.068;12.116;2022-11-15T05:47:52;106.18;;;29.13;;
583;SDS011;27024;54.068;12.116;2022-11-15T05:50:21;120.20;;;27.60;;
583;SDS011;27024;54.068;12.116;2022-11-15T05:52:48;149.98;;;26.65;;
583;SDS011;27024;54.068;12.116;2022-11-15T05:55:15;141.77;;;29.85;;
583;SDS011;27024;54.068;12.116;2022-11-15T05:57:42;134.07;;;28.80;;
583;SDS011;27024;54.068;12.116;2022-11-15T06:00:09;120.25;;;26.85;;
583;SDS011;27024;54.068;12.116;2022-11-15T06:02:36;138.32;;;30.02;;
583;SDS011;27024;54.068;12.116;2022-11-15T06:05:03;97.63;;;26.85;;
583;SDS011;27024;54.068;12.116;2022-11-15T06:07:30;174.05;;;28.60;;
583;SDS011;27024;54.068;12.116;2022-11-15T06:09:57;108.72;;;27.98;;
583;SDS011;27024;54.068;12.116;2022-11-15T06:12:23;97.75;;;30.83;;
583;SDS011;27024;54.068;12.116;2022-11-15T06:14:50;145.20;;;28.23;;
583;SDS011;27024;54.068;12.116;2022-11-15T06:17:17;132.65;;;28.38;;
583;SDS011;27024;54.068;12.116;2022-11-15T06:19:44;198.70;;;29.00;;
583;SDS011;27024;54.068;12.116;2022-11-15T06:22:11;114.45;;;28.02;;
583;SDS011;27024;54.068;12.116;2022-11-15T06:24:37;180.20;;;30.98;;
583;SDS011;27024;54.068;12.116;2022-11-15T06:27:04;247.13;;;30.88;;
583;SDS011;27024;54.068;12.116;2022-11-15T06:29:31;134.27;;;27.48;;
583;SDS011;27024;54.068;12.116;2022-11-15T06:31:57;107.85;;;27.45;;
583;SDS011;27024;54.068;12.116;2022-11-15T06:34:24;108.80;;;25.00;;
583;SDS011;27024;54.068;12.116;2022-11-15T06:36:51;95.18;;;27.95;;
583;SDS011;27024;54.068;12.116;2022-11-15T06:39:18;112.20;;;28.70;;
583;SDS011;27024;54.068;12.116;2022-11-15T06:41:44;86.85;;;27.08;;
583;SDS011;27024;54.068;12.116;2022-11-15T06:44:11;173.60;;;27.58;;
583;SDS011;27024;54.068;12.116;2022-11-15T06:46:38;98.70;;;27.77;;
583;SDS011;27024;54.068;12.116;2022-11-15T06:49:05;112.80;;;27.48;;
583;SDS011;27024;54.068;12.116;2022-11-15T06:51:35;86.13;;;27.63;;
583;SDS011;27024;54.068;12.116;2022-11-15T06:54:02;83.82;;;26.10;;
583;SDS011;27024;54.068;12.116;2022-11-15T06:56:29;78.53;;;27.38;;
583;SDS011;27024;54.068;12.116;2022-11-15T06:58:56;78.57;;;26.33;;
583;SDS011;27024;54.068;12.116;2022-11-15T07:01:22;91.38;;;26.95;;
583;SDS011;27024;54.068;12.116;2022-11-15T07:03:49;80.38;;;27.38;;
583;SDS011;27024;54.068;12.116;2022-11-15T07:06:16;78.45;;;26.48;;
583;SDS011;27024;54.068;12.116;2022-11-15T07:08:42;81.75;;;27.63;;
583;SDS011;27024;54.068;12.116;2022-11-15T07:11:09;75.10;;;27.33;;
583;SDS011;27024;54.068;12.116;2022-11-15T07:13:36;77.40;;;26.80;;
583;SDS011;27024;54.068;12.116;2022-11-15T07:16:07;73.35;;;26.08;;
583;SDS011;27024;54.068;12.116;2022-11-15T07:18:37;77.18;;;27.77;;
583;SDS011;27024;54.068;12.116;2022-11-15T07:21:05;75.80;;;28.15;;
583;SDS011;27024;54.068;12.116;2022-11-15T07:23:35;72.95;;;27.48;;
583;SDS011;27024;54.068;12.116;2022-11-15T07:26:03;70.47;;;26.05;;
583;SDS011;27024;54.068;12.116;2022-11-15T07:28:31;76.93;;;27.42;;
583;SDS011;27024;54.068;12.116;2022-11-15T07:30:57;70.68;;;26.20;;
583;SDS011;27024;54.068;12.116;2022-11-15T07:33:24;72.22;;;27.38;;
583;SDS011;27024;54.068;12.116;2022-11-15T07:35:51;71.30;;;27.30;;
583;SDS011;27024;54.068;12.116;2022-11-15T07:38:18;71.40;;;27.23;;
583;SDS011;27024;54.068;12.116;2022-11-15T07:40:55;69.20;;;25.83;;
583;SDS011;27024;54.068;12.116;2022-11-15T07:43:22;67.57;;;26.73;;
583;SDS011;27024;54.068;12.116;2022-11-15T07:45:49;66.35;;;26.73;;
583;SDS011;27024;54.068;12.116;2022-11-15T07:48:24;63.25;;;25.67;;
583;SDS011;27024;54.068;12.116;2022-11-15T07:50:50;69.00;;;27.67;;
583;SDS011;27024;54.068;12.116;2022-11-15T07:53:17;72.15;;;27.40;;
583;SDS011;27024;54.068;12.116;2022-11-15T07:55:44;63.05;;;25.60;;
583;SDS011;27024;54.068;12.116;2022-11-15T07:58:11;67.40;;;25.85;;
583;SDS011;27024;54.068;12.116;2022-11-15T08:00:38;66.75;;;27.33;;
583;SDS011;27024;54.068;12.116;2022-11-15T08:03:12;65.00;;;26.35;;
583;SDS011;27024;54.068;12.116;2022-11-15T08:05:40;63.80;;;26.40;;
583;SDS011;27024;54.068;12.116;2022-11-15T08:08:08;64.15;;;25.58;;
583;SDS011;27024;54.068;12.116;2022-11-15T08:10:37;61.00;;;26.02;;
583;SDS011;27024;54.068;12.116;2022-11-15T08:13:07;62.88;;;25.95;;
583;SDS011;27024;54.068;12.116;2022-11-15T08:15:35;57.95;;;24.30;;
583;SDS011;27024;54.068;12.116;2022-11-15T08:18:04;61.95;;;25.55;;
583;SDS011;27024;54.068;12.116;2022-11-15T08:20:42;60.88;;;25.17;;
583;SDS011;27024;54.068;12.116;2022-11-15T08:23:10;61.53;;;24.38;;
583;SDS011;27024;54.068;12.116;2022-11-15T08:25:39;58.22;;;25.17;;
583;SDS011;27024;54.068;12.116;2022-11-15T08:28:06;60.63;;;25.75;;
583;SDS011;27024;54.068;12.116;2022-11-15T08:30:35;59.95;;;25.83;;
583;SDS011;27024;54.068;12.116;2022-11-15T08:33:03;61.53;;;24.40;;
583;SDS011;27024;54.068;12.116;2022-11-15T08:35:31;62.42;;;25.40;;
583;SDS011;27024;54.068;12.116;2022-11-15T08:37:57;60.83;;;24.63;;
583;SDS011;27024;54.068;12.116;2022-11-15T08:40:24;62.45;;;26.77;;
583;SDS011;27024;54.068;12.116;2022-11-15T08:42:53;61.33;;;25.65;;
583;SDS011;27024;54.068;12.116;2022-11-15T08:45:20;57.47;;;24.92;;
583;SDS011;27024;54.068;12.116;2022-11-15T08:47:47;56.85;;;25.45;;
583;SDS011;27024;54.068;12.116;2022-11-15T08:50:19;58.95;;;24.88;;
583;SDS011;27024;54.068;12.116;2022-11-15T08:52:46;62.83;;;25.15;;
583;SDS011;27024;54.068;12.116;2022-11-15T08:55:14;57.53;;;26.00;;
583;SDS011;27024;54.068;12.116;2022-11-15T08:57:43;58.13;;;24.42;;
583;SDS011;27024;54.068;12.116;2022-11-15T09:00:10;56.78;;;24.83;;
583;SDS011;27024;54.068;12.116;2022-11-15T09:02:38;59.65;;;24.77;;
583;SDS011;27024;54.068;12.116;2022-11-15T09:05:06;60.45;;;24.77;;
583;SDS011;27024;54.068;12.116;2022-11-15T09:07:33;57.72;;;25.23;;
583;SDS011;27024;54.068;12.116;2022-11-15T09:10:00;58.22;;;25.35;;
583;SDS011;27024;54.068;12.116;2022-11-15T09:12:27;60.38;;;25.63;;
583;SDS011;27024;54.068;12.116;2022-11-15T09:14:54;57.72;;;25.17;;
583;SDS011;27024;54.068;12.116;2022-11-15T09:17:21;56.97;;;24.85;;
583;SDS011;27024;54.068;12.116;2022-11-15T09:19:50;55.55;;;24.05;;
583;SDS011;27024;54.068;12.116;2022-11-15T09:22:17;55.22;;;24.42;;
583;SDS011;27024;54.068;12.116;2022-11-15T09:24:44;57.65;;;24.45;;
583;SDS011;27024;54.068;12.116;2022-11-15T09:27:11;54.38;;;24.60;;
583;SDS011;27024;54.068;12.116;2022-11-15T09:29:39;50.33;;;22.98;;
583;SDS011;27024;54.068;12.116;2022-11-15T09:32:06;51.83;;;24.10;;
583;SDS011;27024;54.068;12.116;2022-11-15T09:34:33;55.47;;;24.77;;
583;SDS011;27024;54.068;12.116;2022-11-15T09:37:00;55.65;;;26.40;;
583;SDS011;27024;54.068;12.116;2022-11-15T09:39:27;51.10;;;24.45;;
583;SDS011;27024;54.068;12.116;2022-11-15T09:42:12;50.90;;;24.42;;
583;SDS011;27024;54.068;12.116;2022-11-15T09:50:12;52.50;;;23.80;;
583;SDS011;27024;54.068;12.116;2022-11-15T09:52:44;51.15;;;23.48;;
583;SDS011;27024;54.068;12.116;2022-11-15T09:55:12;53.33;;;24.13;;
583;SDS011;27024;54.068;12.116;2022-11-15T09:57:50;51.53;;;24.70;;
583;SDS011;27024;54.068;12.116;2022-11-15T10:05:48;52.67;;;23.08;;
583;SDS011;27024;54.068;12.116;2022-11-15T10:11:03;57.35;;;24.65;;
583;SDS011;27024;54.068;12.116;2022-11-15T10:13:58;56.35;;;24.42;;
583;SDS011;27024;54.068;12.116;2022-11-15T10:19:23;49.30;;;22.38;;
583;SDS011;27024;54.068;12.116;2022-11-15T10:22:35;52.65;;;23.83;;
583;SDS011;27024;54.068;12.116;2022-11-15T10:25:14;50.88;;;23.65;;
583;SDS011;27024;54.068;12.116;2022-11-15T10:27:45;50.20;;;22.40;;
583;SDS011;27024;54.068;12.116;2022-11-15T10:30:18;51.15;;;23.25;;
583;SDS011;27024;54.068;12.116;2022-11-15T10:32:46;46.85;;;21.55;;
583;SDS011;27024;54.068;12.116;2022-11-15T10:35:17;46.58;;;22.08;;
583;SDS011;27024;54.068;12.116;2022-11-15T10:37:47;49.30;;;23.25;;
583;SDS011;27024;54.068;12.116;2022-11-15T10:40:18;46.55;;;23.35;;
583;SDS011;27024;54.068;12.116;2022-11-15T10:42:48;45.58;;;21.52;;
583;SDS011;27024;54.068;12.116;2022-11-15T10:45:32;44.92;;;21.80;;
583;SDS011;27024;54.068;12.116;2022-11-15T10:50:43;40.97;;;21.90;;
583;SDS011;27024;54.068;12.116;2022-11-15T10:53:33;42.97;;;22.17;;
583;SDS011;27024;54.068;12.116;2022-11-15T10:56:05;41.35;;;20.85;;
583;SDS011;27024;54.068;12.116;2022-11-15T10:58:41;41.47;;;21.05;;
583;SDS011;27024;54.068;12.116;2022-11-15T11:01:17;42.33;;;21.88;;
583;SDS011;27024;54.068;12.116;2022-11-15T11:04:00;40.40;;;20.33;;
583;SDS011;27024;54.068;12.116;2022-11-15T11:06:54;40.03;;;20.95;;
583;SDS011;27024;54.068;12.116;2022-11-15T11:12:00;38.53;;;20.65;;
583;SDS011;27024;54.068;12.116;2022-11-15T11:14:34;39.22;;;20.70;;
583;SDS011;27024;54.068;12.116;2022-11-15T11:17:39;38.95;;;20.52;;
583;SDS011;27024;54.068;12.116;2022-11-15T11:22:42;38.08;;;20.85;;
583;SDS011;27024;54.068;12.116;2022-11-15T11:42:29;37.28;;;20.02;;
583;SDS011;27024;54.068;12.116;2022-11-15T11:44:39;37.95;;;19.55;;
583;SDS011;27024;54.068;12.116;2022-11-15T11:47:32;36.55;;;19.88;;
583;SDS011;27024;54.068;12.116;2022-11-15T11:50:11;39.90;;;19.55;;
583;SDS011;27024;54.068;12.116;2022-11-15T11:55:34;38.55;;;20.33;;
583;SDS011;27024;54.068;12.116;2022-11-15T12:00:59;37.58;;;19.95;;
583;SDS011;27024;54.068;12.116;2022-11-15T12:03:45;39.55;;;20.33;;
583;SDS011;27024;54.068;12.116;2022-11-15T12:09:07;35.75;;;19.95;;
583;SDS011;27024;54.068;12.116;2022-11-15T12:16:53;38.67;;;21.67;;
583;SDS011;27024;54.068;12.116;2022-11-15T12:19:19;41.47;;;20.63;;
583;SDS011;27024;54.068;12.116;2022-11-15T12:21:49;36.03;;;19.65;;
583;SDS011;27024;54.068;12.116;2022-11-15T12:24:25;43.30;;;20.38;;
583;SDS011;27024;54.068;12.116;2022-11-15T12:27:01;39.13;;;19.45;;
583;SDS011;27024;54.068;12.116;2022-11-15T12:29:52;39.80;;;19.92;;
583;SDS011;27024;54.068;12.116;2022-11-15T12:32:33;39.40;;;22.05;;
583;SDS011;27024;54.068;12.116;2022-11-15T12:35:03;38.35;;;20.88;;
583;SDS011;27024;54.068;12.116;2022-11-15T12:37:33;38.60;;;21.23;;
583;SDS011;27024;54.068;12.116;2022-11-15T12:43:00;38.08;;;19.63;;
583;SDS011;27024;54.068;12.116;2022-11-15T12:45:34;36.90;;;19.38;;
583;SDS011;27024;54.068;12.116;2022-11-15T12:58:52;36.05;;;19.90;;
583;SDS011;27024;54.068;12.116;2022-11-15T13:02:11;35.35;;;18.92;;
583;SDS011;27024;54.068;12.116;2022-11-15T13:06:46;35.63;;;20.17;;
583;SDS011;27024;54.068;12.116;2022-11-15T13:11:56;32.72;;;18.52;;
583;SDS011;27024;54.068;12.116;2022-11-15T13:17:11;37.42;;;20.42;;
583;SDS011;27024;54.068;12.116;2022-11-15T13:19:46;35.13;;;19.25;;
583;SDS011;27024;54.068;12.116;2022-11-15T13:22:14;36.30;;;19.20;;
583;SDS011;27024;54.068;12.116;2022-11-15T13:25:00;35.40;;;18.98;;
583;SDS011;27024;54.068;12.116;2022-11-15T13:27:27;38.33;;;19.77;;
583;SDS011;27024;54.068;12.116;2022-11-15T13:29:55;37.10;;;19.38;;
583;SDS011;27024;54.068;12.116;2022-11-15T13:32:22;36.75;;;19.02;;
583;SDS011;27024;54.068;12.116;2022-11-15T13:34:49;35.85;;;19.23;;
583;SDS011;27024;54.068;12.116;2022-11-15T13:39:49;38.75;;;19.95;;
583;SDS011;27024;54.068;12.116;2022-11-15T13:42:16;40.55;;;21.02;;
583;SDS011;27024;54.068;12.116;2022-11-15T13:44:56;36.70;;;19.35;;
583;SDS011;27024;54.068;12.116;2022-11-15T13:47:27;37.20;;;19.23;;
583;SDS011;27024;54.068;12.116;2022-11-15T13:49:58;38.75;;;19.55;;
583;SDS011;27024;54.068;12.116;2022-11-15T13:52:31;38.28;;;19.92;;
583;SDS011;27024;54.068;12.116;2022-11-15T13:55:02;38.03;;;20.02;;
583;SDS011;27024;54.068;12.116;2022-11-15T13:57:42;34.20;;;19.38;;
583;SDS011;27024;54.068;12.116;2022-11-15T14:00:30;37.53;;;18.85;;
583;SDS011;27024;54.068;12.116;2022-11-15T14:03:10;39.83;;;19.35;;
583;SDS011;27024;54.068;12.116;2022-11-15T14:05:41;38.08;;;18.98;;
583;SDS011;27024;54.068;12.116;2022-11-15T14:10:41;41.60;;;18.83;;
583;SDS011;27024;54.068;12.116;2022-11-15T14:13:27;38.78;;;19.08;;
583;SDS011;27024;54.068;12.116;2022-11-15T14:16:12;38.13;;;18.77;;
583;SDS011;27024;54.068;12.116;2022-11-15T14:21:17;39.42;;;19.42;;
583;SDS011;27024;54.068;12.116;2022-11-15T14:23:45;44.97;;;20.83;;
583;SDS011;27024;54.068;12.116;2022-11-15T14:26:29;43.15;;;20.52;;
583;SDS011;27024;54.068;12.116;2022-11-15T14:28:56;44.72;;;21.35;;
583;SDS011;27024;54.068;12.116;2022-11-15T14:31:22;45.33;;;21.92;;
583;SDS011;27024;54.068;12.116;2022-11-15T14:33:49;46.85;;;20.50;;
583;SDS011;27024;54.068;12.116;2022-11-15T14:38:44;49.03;;;21.38;;
583;SDS011;27024;54.068;12.116;2022-11-15T14:41:24;50.60;;;22.02;;
583;SDS011;27024;54.068;12.116;2022-11-15T14:43:58;52.00;;;22.13;;
583;SDS011;27024;54.068;12.116;2022-11-15T14:46:25;49.60;;;22.67;;
583;SDS011;27024;54.068;12.116;2022-11-15T14:48:52;50.97;;;21.63;;
583;SDS011;27024;54.068;12.116;2022-11-15T14:51:19;55.45;;;22.65;;
583;SDS011;27024;54.068;12.116;2022-11-15T14:53:48;57.15;;;23.25;;
583;SDS011;27024;54.068;12.116;2022-11-15T14:56:15;59.10;;;23.65;;
583;SDS011;27024;54.068;12.116;2022-11-15T14:58:45;57.33;;;23.58;;
583;SDS011;27024;54.068;12.116;2022-11-15T15:01:23;56.78;;;23.65;;
583;SDS011;27024;54.068;12.116;2022-11-15T15:03:52;59.53;;;24.42;;
583;SDS011;27024;54.068;12.116;2022-11-15T15:06:22;57.33;;;23.55;;
583;SDS011;27024;54.068;12.116;2022-11-15T15:08:49;56.30;;;22.92;;
583;SDS011;27024;54.068;12.116;2022-11-15T15:11:21;54.70;;;23.02;;
583;SDS011;27024;54.068;12.116;2022-11-15T15:13:50;60.10;;;24.75;;
583;SDS011;27024;54.068;12.116;2022-11-15T15:16:18;57.17;;;22.65;;
583;SDS011;27024;54.068;12.116;2022-11-15T15:18:45;55.75;;;22.35;;
583;SDS011;27024;54.068;12.116;2022-11-15T15:21:17;57.22;;;22.00;;
583;SDS011;27024;54.068;12.116;2022-11-15T15:24:03;57.58;;;23.40;;
583;SDS011;27024;54.068;12.116;2022-11-15T15:26:30;53.40;;;22.70;;
583;SDS011;27024;54.068;12.116;2022-11-15T15:29:00;55.00;;;22.85;;
583;SDS011;27024;54.068;12.116;2022-11-15T15:31:26;52.80;;;21.92;;
583;SDS011;27024;54.068;12.116;2022-11-15T15:33:53;57.67;;;23.90;;
583;SDS011;27024;54.068;12.116;2022-11-15T15:36:20;58.88;;;21.70;;
583;SDS011;27024;54.068;12.116;2022-11-15T15:38:46;60.03;;;22.75;;
583;SDS011;27024;54.068;12.116;2022-11-15T15:41:13;59.40;;;23.15;;
583;SDS011;27024;54.068;12.116;2022-11-15T15:43:41;59.88;;;25.05;;
583;SDS011;27024;54.068;12.116;2022-11-15T15:46:12;63.97;;;23.83;;
583;SDS011;27024;54.068;12.116;2022-11-15T15:48:41;63.03;;;24.17;;
583;SDS011;27024;54.068;12.116;2022-11-15T15:51:08;58.65;;;25.17;;
583;SDS011;27024;54.068;12.116;2022-11-15T15:53:43;66.35;;;25.90;;
583;SDS011;27024;54.068;12.116;2022-11-15T15:56:10;73.57;;;26.05;;
583;SDS011;27024;54.068;12.116;2022-11-15T15:58:37;67.47;;;25.05;;
583;SDS011;27024;54.068;12.116;2022-11-15T16:01:04;72.53;;;24.10;;
583;SDS011;27024;54.068;12.116;2022-11-15T16:03:31;72.38;;;25.45;;
583;SDS011;27024;54.068;12.116;2022-11-15T16:05:57;68.53;;;23.95;;
583;SDS011;27024;54.068;12.116;2022-11-15T16:08:25;74.43;;;24.20;;
583;SDS011;27024;54.068;12.116;2022-11-15T16:11:16;70.72;;;25.67;;
583;SDS011;27024;54.068;12.116;2022-11-15T16:13:43;75.55;;;25.35;;
583;SDS011;27024;54.068;12.116;2022-11-15T16:16:12;68.30;;;23.90;;
583;SDS011;27024;54.068;12.116;2022-11-15T16:18:39;78.90;;;24.02;;
583;SDS011;27024;54.068;12.116;2022-11-15T16:21:07;71.53;;;24.38;;
583;SDS011;27024;54.068;12.116;2022-11-15T16:23:35;72.30;;;23.67;;
583;SDS011;27024;54.068;12.116;2022-11-15T16:26:01;71.65;;;23.90;;
583;SDS011;27024;54.068;12.116;2022-11-15T16:28:30;88.97;;;25.48;;
583;SDS011;27024;54.068;12.116;2022-11-15T16:31:08;82.15;;;25.88;;
583;SDS011;27024;54.068;12.116;2022-11-15T16:33:36;77.45;;;23.50;;
583;SDS011;27024;54.068;12.116;2022-11-15T16:36:04;79.35;;;25.33;;
583;SDS011;27024;54.068;12.116;2022-11-15T16:38:36;83.18;;;25.35;;
583;SDS011;27024;54.068;12.116;2022-11-15T16:41:05;85.78;;;26.42;;